createdAt,value
2019-04-01T00:01:38.660Z,69.58
2019-04-01T00:04:09.250Z,69.25
2019-04-01T00:06:40.186Z,68.54
2019-04-01T00:09:11.130Z,68.56
2019-04-01T00:11:42.169Z,69.86
2019-04-01T00:14:12.751Z,69.48
2019-04-01T00:16:43.535Z,69.11
2019-04-01T00:19:14.360Z,68.63
2019-04-01T00:21:45.203Z,68.44
2019-04-01T00:24:16.142Z,68.78
2019-04-01T00:26:47.073Z,69.60
2019-04-01T00:29:17.810Z,69.58
2019-04-01T00:31:48.572Z,69.05
2019-04-01T00:34:19.386Z,69.68
2019-04-01T00:36:50.415Z,68.84
2019-04-01T00:39:21.362Z,68.51
2019-04-01T00:41:53.980Z,68.91
2019-04-01T00:44:24.776Z,68.99
2019-04-01T00:46:55.861Z,69.59
2019-04-01T00:49:26.677Z,68.94
2019-04-01T00:51:57.635Z,69.19
2019-04-01T00:54:28.426Z,68.98
2019-04-01T00:56:59.163Z,68.80
2019-04-01T00:59:29.922Z,68.78
2019-04-01T01:02:00.824Z,68.57
2019-04-01T01:04:31.670Z,68.46
2019-04-01T01:07:02.400Z,68.57
2019-04-01T01:09:33.243Z,68.63
2019-04-01T01:12:04.179Z,68.49
2019-04-01T01:14:35.015Z,68.11
2019-04-01T01:17:05.957Z,68.50
2019-04-01T01:19:36.898Z,68.74
2019-04-01T01:22:07.629Z,68.68
2019-04-01T01:24:38.055Z,68.96
2019-04-01T01:27:08.888Z,68.89
2019-04-01T01:29:39.714Z,68.86
2019-04-01T01:32:10.660Z,68.60
2019-04-01T01:34:41.605Z,68.55
2019-04-01T01:37:12.328Z,68.67
2019-04-01T01:39:43.208Z,68.96
2019-04-01T01:42:14.003Z,69.20
2019-04-01T01:44:44.840Z,70.14
2019-04-01T01:47:15.795Z,70.25
2019-04-01T01:49:46.713Z,70.50
2019-04-01T01:52:17.545Z,70.53
2019-04-01T01:54:48.490Z,70.95
2019-04-01T01:57:19.340Z,70.80
2019-04-01T01:59:50.174Z,71.61
2019-04-01T02:02:20.819Z,71.07
2019-04-01T02:04:51.632Z,70.94
2019-04-01T02:07:25.042Z,70.61
2019-04-01T02:09:55.963Z,70.48
2019-04-01T02:12:26.919Z,70.51
2019-04-01T02:14:57.734Z,71.52
2019-04-01T02:17:28.576Z,71.43
2019-04-01T02:19:59.511Z,70.61
2019-04-01T02:22:30.551Z,69.97
2019-04-01T02:25:01.594Z,69.82
2019-04-01T02:27:32.541Z,70.07
2019-04-01T02:30:04.293Z,70.00
2019-04-01T02:32:34.724Z,70.05
2019-04-01T02:35:06.372Z,71.07
2019-04-01T02:37:36.901Z,71.03
2019-04-01T02:40:08.159Z,70.78
2019-04-01T02:42:38.683Z,71.68
2019-04-01T02:45:09.540Z,71.89
2019-04-01T02:47:40.263Z,71.54
2019-04-01T02:50:11.487Z,72.50
2019-04-01T02:52:42.216Z,72.86
2019-04-01T02:55:13.377Z,72.45
2019-04-01T02:57:43.915Z,71.86
2019-04-01T03:00:14.724Z,71.74
2019-04-01T03:02:45.681Z,71.82
2019-04-01T03:05:16.609Z,72.75
2019-04-01T03:07:47.264Z,72.11
2019-04-01T03:10:18.171Z,72.46
2019-04-01T03:12:49.121Z,72.83
2019-04-01T03:15:19.941Z,72.47
2019-04-01T03:17:50.992Z,72.73
2019-04-01T03:20:21.831Z,72.86
2019-04-01T03:22:55.564Z,72.94
2019-04-01T03:25:26.462Z,72.84
2019-04-01T03:27:57.206Z,72.46
2019-04-01T03:30:27.749Z,73.26
2019-04-01T03:33:03.184Z,73.54
2019-04-01T03:35:33.812Z,72.66
2019-04-01T03:38:04.559Z,72.90
2019-04-01T03:40:35.381Z,71.50
2019-04-01T03:43:06.131Z,70.98
2019-04-01T03:45:37.257Z,71.32
2019-04-01T03:48:11.371Z,71.17
2019-04-01T03:50:42.045Z,70.52
2019-04-01T03:53:12.841Z,70.98
2019-04-01T03:55:43.978Z,70.58
2019-04-01T03:58:14.814Z,70.41
2019-04-01T04:00:45.544Z,70.51
2019-04-01T04:03:16.090Z,70.00
2019-04-01T04:05:47.010Z,70.35
2019-04-01T04:08:17.846Z,69.85
2019-04-01T04:10:48.787Z,68.93
2019-04-01T04:13:19.218Z,68.46
2019-04-01T04:15:50.251Z,68.37
2019-04-01T04:18:21.193Z,68.18
2019-04-01T04:20:51.834Z,67.65
2019-04-01T04:23:22.658Z,67.53
2019-04-01T04:25:53.538Z,67.56
2019-04-01T04:28:24.031Z,67.21
2019-04-01T04:30:54.843Z,67.13
2019-04-01T04:33:26.106Z,66.83
2019-04-01T04:35:56.860Z,66.67
2019-04-01T04:38:27.774Z,66.48
2019-04-01T04:40:58.544Z,66.10
2019-04-01T04:43:29.251Z,65.99
2019-04-01T04:45:59.979Z,64.53
2019-04-01T04:48:30.814Z,62.11
2019-04-01T04:51:01.388Z,58.75
2019-04-01T04:53:32.380Z,57.62
2019-04-01T04:56:03.124Z,56.74
2019-04-01T04:58:33.957Z,55.40
2019-04-01T05:01:05.131Z,55.90
2019-04-01T05:03:35.719Z,54.08
2019-04-01T05:06:06.773Z,54.36
2019-04-01T05:08:38.400Z,55.64
2019-04-01T05:11:09.466Z,55.51
2019-04-01T05:13:40.417Z,55.50
2019-04-01T05:16:11.245Z,55.38
2019-04-01T05:18:42.276Z,55.62
2019-04-01T05:21:13.338Z,54.78
2019-04-01T05:23:43.960Z,54.48
2019-04-01T05:26:14.417Z,51.33
2019-04-01T05:28:45.214Z,49.58
2019-04-01T05:31:16.158Z,49.50
2019-04-01T05:33:55.367Z,51.66
2019-04-01T05:36:21.517Z,54.19
2019-04-01T05:38:52.049Z,56.58
2019-04-01T05:41:23.075Z,56.85
2019-04-01T05:43:53.915Z,57.38
2019-04-01T05:46:24.849Z,57.52
2019-04-01T05:48:55.803Z,57.39
2019-04-01T05:51:26.226Z,57.23
2019-04-01T05:53:57.171Z,56.50
2019-04-01T05:56:28.099Z,56.03
2019-04-01T05:58:58.933Z,56.19
2019-04-01T06:01:34.268Z,56.22
2019-04-01T06:04:05.431Z,55.38
2019-04-01T06:06:36.158Z,54.90
2019-04-01T06:09:08.307Z,54.77
2019-04-01T06:11:38.948Z,54.35
2019-04-01T06:14:09.665Z,54.29
2019-04-01T06:16:40.718Z,52.95
2019-04-01T06:19:11.691Z,53.18
2019-04-01T06:21:42.396Z,52.56
2019-04-01T06:24:13.232Z,52.15
2019-04-01T06:26:44.171Z,51.14
2019-04-01T06:29:14.993Z,51.17
2019-04-01T06:31:45.933Z,51.18
2019-04-01T06:34:16.673Z,50.54
2019-04-01T06:36:47.514Z,50.14
2019-04-01T06:39:18.420Z,49.87
2019-04-01T06:41:49.595Z,49.66
2019-04-01T06:44:20.533Z,49.15
2019-04-01T06:46:51.471Z,48.92
2019-04-01T06:49:22.381Z,48.16
2019-04-01T06:51:53.045Z,48.24
2019-04-01T06:54:26.269Z,47.59
2019-04-01T06:56:56.862Z,48.80
2019-04-01T06:59:27.593Z,47.66
2019-04-01T07:01:58.434Z,45.72
2019-04-01T07:04:29.196Z,45.99
2019-04-01T07:07:00.104Z,45.25
2019-04-01T07:09:30.942Z,46.19
2019-04-01T07:12:01.875Z,44.97
2019-04-01T07:14:32.606Z,44.48
2019-04-01T07:17:03.754Z,44.10
2019-04-01T07:19:34.184Z,43.83
2019-04-01T07:22:04.722Z,43.67
2019-04-01T07:24:35.571Z,44.24
2019-04-01T07:27:08.280Z,44.60
2019-04-01T07:29:38.543Z,45.67
2019-04-01T07:32:09.488Z,44.60
2019-04-01T07:34:40.398Z,44.13
2019-04-01T07:37:11.059Z,43.18
2019-04-01T07:39:42.094Z,43.25
2019-04-01T07:42:13.103Z,42.74
2019-04-01T07:44:44.306Z,43.13
2019-04-01T07:47:14.701Z,43.46
2019-04-01T07:49:45.541Z,43.56
2019-04-01T07:52:16.481Z,44.30
2019-04-01T07:54:47.314Z,44.30
2019-04-01T07:57:18.529Z,44.35
2019-04-01T07:59:49.093Z,44.78
2019-04-01T08:02:20.041Z,45.97
2019-04-01T08:04:51.071Z,45.77
2019-04-01T08:07:22.043Z,44.47
2019-04-01T08:09:52.536Z,44.29
2019-04-01T08:12:23.705Z,44.55
2019-04-01T08:14:54.622Z,44.51
2019-04-01T08:17:25.564Z,44.26
2019-04-01T08:19:56.294Z,43.67
2019-04-01T08:22:27.134Z,43.55
2019-04-01T08:24:57.976Z,43.50
2019-04-01T08:27:28.807Z,42.74
2019-04-01T08:29:59.748Z,41.20
2019-04-01T08:32:30.576Z,41.19
2019-04-01T08:35:02.908Z,40.49
2019-04-01T08:37:33.780Z,40.89
2019-04-01T08:40:06.333Z,40.97
2019-04-01T08:42:36.783Z,40.55
2019-04-01T08:45:09.171Z,40.16
2019-04-01T08:47:39.990Z,40.16
2019-04-01T08:50:11.578Z,39.01
2019-04-01T08:52:42.303Z,39.17
2019-04-01T08:55:14.342Z,38.05
2019-04-01T08:57:45.287Z,38.39
2019-04-01T09:00:16.334Z,38.49
2019-04-01T09:02:47.188Z,38.35
2019-04-01T09:05:17.683Z,38.89
2019-04-01T09:07:48.839Z,37.98
2019-04-01T09:10:19.664Z,37.87
2019-04-01T09:12:50.400Z,37.82
2019-04-01T09:15:21.334Z,36.66
2019-04-01T09:17:52.171Z,36.64
2019-04-01T09:20:23.112Z,37.69
2019-04-01T09:22:53.843Z,37.97
2019-04-01T09:25:24.701Z,37.30
2019-04-01T09:27:55.505Z,38.21
2019-04-01T09:30:26.559Z,38.30
2019-04-01T09:32:57.245Z,37.89
2019-04-01T09:35:28.238Z,37.37
2019-04-01T09:37:58.984Z,37.28
2019-04-01T09:40:29.900Z,37.27
2019-04-01T09:43:00.389Z,36.70
2019-04-01T09:45:31.269Z,36.23
2019-04-01T09:48:02.120Z,36.16
2019-04-01T09:50:35.713Z,37.42
2019-04-01T09:53:08.739Z,37.67
2019-04-01T09:55:41.163Z,37.05
2019-04-01T09:58:11.999Z,37.30
2019-04-01T10:00:42.570Z,37.04
2019-04-01T10:03:13.025Z,36.19
2019-04-01T10:05:44.094Z,35.92
2019-04-01T10:08:14.848Z,34.70
2019-04-01T10:10:45.685Z,34.12
2019-04-01T10:13:16.451Z,33.24
2019-04-01T10:15:47.344Z,33.50
2019-04-01T10:18:18.222Z,32.87
2019-04-01T10:20:49.527Z,32.88
2019-04-01T10:23:20.253Z,31.28
2019-04-01T10:25:51.761Z,31.22
2019-04-01T10:28:22.756Z,30.88
2019-04-01T10:30:53.586Z,30.92
2019-04-01T10:33:24.596Z,30.66
2019-04-01T10:35:55.468Z,31.00
2019-04-01T10:38:26.705Z,31.00
2019-04-01T10:40:57.761Z,30.65
2019-04-01T10:43:28.706Z,30.78
2019-04-01T10:45:59.417Z,30.26
2019-04-01T10:48:30.486Z,30.64
2019-04-01T10:51:01.261Z,30.73
2019-04-01T10:53:32.101Z,30.34
2019-04-01T10:56:03.101Z,30.34
2019-04-01T10:58:34.073Z,30.62
2019-04-01T11:01:05.148Z,30.52
2019-04-01T11:03:36.055Z,30.04
2019-04-01T11:06:07.179Z,29.94
2019-04-01T11:08:38.229Z,30.16
2019-04-01T11:11:09.152Z,29.67
2019-04-01T11:13:39.952Z,29.78
2019-04-01T11:16:10.774Z,29.82
2019-04-01T11:18:41.653Z,29.01
2019-04-01T11:21:12.468Z,29.00
2019-04-01T11:23:43.214Z,29.28
2019-04-01T11:26:14.638Z,28.85
2019-04-01T11:28:45.584Z,28.32
2019-04-01T11:31:16.530Z,28.59
2019-04-01T11:33:47.505Z,27.86
2019-04-01T11:36:18.306Z,27.74
2019-04-01T11:38:49.149Z,27.42
2019-04-01T11:41:20.005Z,27.26
2019-04-01T11:43:52.495Z,27.52
2019-04-01T11:46:23.744Z,27.76
2019-04-01T11:48:54.443Z,27.54
2019-04-01T11:51:32.432Z,27.69
2019-04-01T11:53:57.708Z,27.60
2019-04-01T11:56:28.665Z,28.22
2019-04-01T11:58:59.193Z,28.20
2019-04-01T12:01:30.027Z,27.69
2019-04-01T12:04:00.973Z,28.01
2019-04-01T12:06:31.807Z,28.50
2019-04-01T12:09:02.491Z,28.63
2019-04-01T12:11:33.332Z,28.73
2019-04-01T12:14:05.270Z,28.40
2019-04-01T12:16:36.174Z,28.63
2019-04-01T12:19:06.836Z,29.09
2019-04-01T12:21:41.475Z,28.26
2019-04-01T12:24:11.644Z,28.13
2019-04-01T12:26:42.479Z,28.42
2019-04-01T12:29:14.424Z,28.60
2019-04-01T12:31:45.381Z,29.02
2019-04-01T12:34:16.895Z,28.99
2019-04-01T12:36:49.095Z,28.24
2019-04-01T12:39:19.951Z,28.14
2019-04-01T12:41:51.184Z,27.61
2019-04-01T12:44:22.055Z,27.60
2019-04-01T12:46:53.164Z,27.84
2019-04-01T12:49:24.001Z,27.59
2019-04-01T12:51:58.215Z,27.87
2019-04-01T12:54:27.207Z,28.19
2019-04-01T12:56:57.943Z,28.82
2019-04-01T12:59:28.787Z,29.13
2019-04-01T13:01:59.713Z,29.77
2019-04-01T13:04:30.551Z,29.66
2019-04-01T13:07:04.900Z,29.62
2019-04-01T13:09:33.895Z,29.72
2019-04-01T13:12:04.600Z,29.06
2019-04-01T13:14:35.132Z,29.17
2019-04-01T13:17:05.982Z,29.10
2019-04-01T13:19:36.903Z,29.42
2019-04-01T13:22:08.975Z,29.01
2019-04-01T13:24:40.069Z,28.92
2019-04-01T13:27:10.971Z,29.52
2019-04-01T13:29:41.709Z,30.00
2019-04-01T13:32:12.520Z,29.66
2019-04-01T13:34:43.345Z,30.05
2019-04-01T13:37:13.991Z,29.87
2019-04-01T13:39:46.351Z,29.67
2019-04-01T13:42:16.979Z,30.02
2019-04-01T13:44:47.814Z,30.36
2019-04-01T13:47:18.547Z,30.65
2019-04-01T13:49:49.818Z,30.57
2019-04-01T13:52:20.732Z,30.63
2019-04-01T13:54:51.467Z,30.94
2019-04-01T13:57:22.301Z,30.89
2019-04-01T13:59:53.143Z,31.25
2019-04-01T14:02:24.188Z,31.32
2019-04-01T14:04:55.486Z,31.50
2019-04-01T14:07:26.878Z,31.74
2019-04-01T14:09:57.608Z,32.04
2019-04-01T14:12:28.289Z,32.20
2019-04-01T14:14:59.176Z,32.12
2019-04-01T14:17:30.008Z,32.41
2019-04-01T14:20:00.851Z,31.95
2019-04-01T14:22:31.684Z,32.08
2019-04-01T14:25:02.555Z,32.25
2019-04-01T14:27:33.361Z,32.39
2019-04-01T14:30:07.683Z,32.81
2019-04-01T14:32:38.510Z,32.62
2019-04-01T14:35:09.297Z,32.69
2019-04-01T14:37:40.276Z,33.01
2019-04-01T14:40:11.130Z,33.98
2019-04-01T14:42:41.873Z,34.76
2019-04-01T14:45:12.792Z,35.28
2019-04-01T14:47:56.592Z,35.64
2019-04-01T14:50:15.818Z,35.78
2019-04-01T14:52:46.641Z,36.03
2019-04-01T14:55:17.264Z,36.49
2019-04-01T14:57:48.022Z,36.64
2019-04-01T15:00:18.847Z,36.98
2019-04-01T15:02:50.488Z,36.89
2019-04-01T15:05:21.339Z,37.04
2019-04-01T15:07:52.160Z,36.95
2019-04-01T15:10:23.140Z,37.16
2019-04-01T15:13:05.063Z,37.33
2019-04-01T15:15:26.447Z,37.39
2019-04-01T15:17:57.363Z,37.52
2019-04-01T15:20:27.892Z,37.36
2019-04-01T15:22:58.716Z,37.56
2019-04-01T15:25:29.653Z,37.93
2019-04-01T15:28:01.560Z,38.29
2019-04-01T15:30:32.970Z,38.70
2019-04-01T15:33:03.909Z,38.80
2019-04-01T15:35:34.664Z,38.94
2019-04-01T15:38:05.295Z,39.32
2019-04-01T15:40:36.068Z,39.80
2019-04-01T15:43:06.867Z,40.18
2019-04-01T15:45:37.595Z,40.25
2019-04-01T15:48:08.413Z,40.40
2019-04-01T15:50:39.162Z,40.68
2019-04-01T15:53:09.993Z,40.58
2019-04-01T15:55:40.738Z,40.82
2019-04-01T15:58:11.552Z,41.31
2019-04-01T16:00:44.322Z,41.49
2019-04-01T16:03:15.053Z,41.37
2019-04-01T16:05:45.902Z,41.53
2019-04-01T16:08:16.847Z,41.23
2019-04-01T16:10:47.670Z,41.77
2019-04-01T16:13:18.576Z,41.76
2019-04-01T16:15:49.144Z,42.05
2019-04-01T16:18:19.662Z,41.75
2019-04-01T16:20:50.512Z,41.65
2019-04-01T16:23:21.537Z,41.92
2019-04-01T16:25:52.499Z,41.97
2019-04-01T16:28:23.318Z,42.37
2019-04-01T16:30:54.154Z,42.37
2019-04-01T16:33:25.023Z,42.63
2019-04-01T16:35:55.929Z,42.28
2019-04-01T16:38:26.874Z,42.21
2019-04-01T16:40:57.400Z,42.28
2019-04-01T16:43:28.137Z,42.79
2019-04-01T16:45:58.963Z,42.97
2019-04-01T16:48:29.901Z,42.89
2019-04-01T16:51:01.050Z,43.21
2019-04-01T16:53:31.896Z,43.11
2019-04-01T16:56:02.376Z,42.88
2019-04-01T16:58:33.694Z,43.28
2019-04-01T17:01:04.375Z,43.28
2019-04-01T17:03:35.327Z,43.67
2019-04-01T17:06:06.468Z,43.65
2019-04-01T17:08:37.135Z,43.40
2019-04-01T17:11:07.898Z,43.64
2019-04-01T17:13:38.772Z,43.54
2019-04-01T17:16:09.818Z,43.68
2019-04-01T17:18:40.477Z,43.44
2019-04-01T17:21:11.399Z,43.66
2019-04-01T17:23:42.239Z,43.14
2019-04-01T17:26:12.979Z,43.43
2019-04-01T17:28:43.991Z,43.46
2019-04-01T17:31:14.728Z,43.13
2019-04-01T17:33:45.365Z,43.20
2019-04-01T17:36:16.314Z,42.59
2019-04-01T17:38:48.258Z,42.73
2019-04-01T17:41:19.113Z,42.72
2019-04-01T17:43:49.937Z,42.17
2019-04-01T17:46:20.768Z,41.80
2019-04-01T17:48:51.500Z,41.75
2019-04-01T17:51:25.175Z,41.42
2019-04-01T17:53:57.064Z,41.68
2019-04-01T17:56:28.037Z,41.62
2019-04-01T17:59:01.343Z,41.13
2019-04-01T18:01:31.007Z,40.52
2019-04-01T18:04:02.511Z,40.61
2019-04-01T18:06:33.285Z,40.74
2019-04-01T18:09:05.965Z,40.67
2019-04-01T18:11:36.718Z,40.67
2019-04-01T18:14:09.294Z,40.92
2019-04-01T18:16:40.528Z,40.76
2019-04-01T18:19:11.157Z,40.60
2019-04-01T18:21:41.988Z,40.48
2019-04-01T18:24:12.955Z,40.77
2019-04-01T18:26:43.662Z,40.52
2019-04-01T18:29:14.466Z,40.48
2019-04-01T18:31:45.803Z,40.45
2019-04-01T18:34:16.435Z,40.44
2019-04-01T18:36:46.847Z,40.37
2019-04-01T18:39:17.845Z,40.34
2019-04-01T18:41:48.271Z,40.33
2019-04-01T18:44:19.061Z,40.34
2019-04-01T18:46:49.844Z,40.56
2019-04-01T18:49:20.775Z,40.72
2019-04-01T18:51:51.414Z,40.66
2019-04-01T18:54:22.147Z,40.42
2019-04-01T18:56:53.010Z,40.48
2019-04-01T18:59:23.505Z,40.57
2019-04-01T19:01:54.451Z,40.82
2019-04-01T19:04:25.386Z,40.29
2019-04-01T19:06:56.021Z,40.57
2019-04-01T19:09:26.773Z,40.35
2019-04-01T19:12:03.704Z,40.33
2019-04-01T19:14:29.959Z,40.23
2019-04-01T19:17:00.691Z,40.35
2019-04-01T19:19:32.915Z,39.71
2019-04-01T19:22:06.659Z,39.41
2019-04-01T19:24:37.607Z,39.12
2019-04-01T19:27:08.433Z,38.59
2019-04-01T19:29:42.639Z,38.62
2019-04-01T19:32:14.599Z,38.07
2019-04-01T19:34:43.935Z,37.89
2019-04-01T19:37:18.001Z,37.75
2019-04-01T19:39:47.378Z,37.11
2019-04-01T19:42:18.335Z,37.11
2019-04-01T19:44:52.379Z,36.79
2019-04-01T19:47:22.802Z,37.07
2019-04-01T19:49:53.646Z,37.11
2019-04-01T19:52:26.120Z,36.94
2019-04-01T19:54:56.840Z,37.07
2019-04-01T19:57:28.128Z,36.86
2019-04-01T19:59:59.327Z,36.89
2019-04-01T20:02:30.330Z,36.98
2019-04-01T20:05:01.312Z,37.01
2019-04-01T20:07:31.962Z,36.53
2019-04-01T20:10:04.743Z,36.79
2019-04-01T20:12:36.486Z,36.80
2019-04-01T20:15:11.971Z,36.89
2019-04-01T20:17:42.667Z,37.08
2019-04-01T20:20:14.745Z,37.51
2019-04-01T20:22:45.306Z,37.55
2019-04-01T20:25:17.023Z,37.29
2019-04-01T20:27:47.651Z,37.46
2019-04-01T20:30:18.489Z,37.37
2019-04-01T20:32:49.449Z,37.24
2019-04-01T20:35:23.696Z,37.46
2019-04-01T20:37:52.621Z,37.67
2019-04-01T20:40:24.297Z,37.85
2019-04-01T20:42:55.636Z,37.77
2019-04-01T20:45:26.775Z,37.91
2019-04-01T20:47:57.685Z,38.11
2019-04-01T20:50:28.550Z,38.14
2019-04-01T20:52:59.482Z,38.29
2019-04-01T20:55:30.421Z,38.20
2019-04-01T20:58:00.951Z,38.20
2019-04-01T21:00:31.674Z,38.46
2019-04-01T21:03:02.729Z,38.85
2019-04-01T21:05:33.163Z,38.87
2019-04-01T21:08:03.995Z,38.89
2019-04-01T21:24:17.375Z,39.28
2019-04-01T21:26:51.987Z,39.46
2019-04-01T21:29:22.942Z,39.66
2019-04-01T21:31:53.593Z,39.66
2019-04-01T21:34:24.337Z,39.92
2019-04-01T21:36:54.914Z,40.05
2019-04-01T21:39:25.491Z,40.19
2019-04-01T21:41:55.987Z,40.29
2019-04-01T21:44:26.381Z,40.34
2019-04-01T21:46:56.845Z,40.55
2019-04-01T21:49:27.343Z,40.78
2019-04-01T21:51:57.770Z,40.94
2019-04-01T21:54:28.548Z,40.89
2019-04-01T21:56:59.135Z,40.95
2019-04-01T21:59:29.565Z,41.03
2019-04-01T22:01:59.972Z,41.36
2019-04-01T22:04:30.765Z,41.40
2019-04-01T22:07:01.189Z,41.35
2019-04-01T22:09:31.574Z,41.34
2019-04-01T22:12:02.184Z,41.58
2019-04-01T22:14:32.739Z,41.74
2019-04-01T22:17:03.190Z,41.93
2019-04-01T22:19:33.599Z,41.94
2019-04-01T22:22:04.037Z,41.97
2019-04-01T22:24:34.443Z,42.23
2019-04-01T22:27:04.869Z,42.23
2019-04-01T22:29:35.314Z,42.56
2019-04-01T22:32:05.870Z,42.43
2019-04-01T22:34:37.309Z,42.47
2019-04-01T22:37:08.923Z,42.36
2019-04-01T22:39:39.655Z,42.56
2019-04-01T22:42:10.171Z,42.68
2019-04-01T22:44:41.212Z,42.72
2019-04-01T22:47:12.190Z,42.98
2019-04-01T22:49:43.295Z,43.07
2019-04-01T22:52:14.229Z,43.06
2019-04-01T22:54:45.201Z,43.25
2019-04-01T22:57:16.046Z,43.07
2019-04-01T22:59:46.944Z,43.52
2019-04-01T23:02:17.776Z,43.87
2019-04-01T23:04:48.616Z,43.81
2019-04-01T23:07:19.555Z,44.10
2019-04-01T23:09:50.440Z,44.00
2019-04-01T23:12:22.159Z,44.17
2019-04-01T23:14:53.192Z,44.31
2019-04-01T23:17:24.129Z,44.54
2019-04-01T23:19:55.164Z,44.65
2019-04-01T23:22:26.110Z,44.66
2019-04-01T23:24:57.446Z,44.83
2019-04-01T23:27:28.588Z,45.07
2019-04-01T23:29:59.050Z,44.77
2019-04-01T23:32:29.567Z,44.79
2019-04-01T23:35:00.078Z,44.86
2019-04-01T23:37:30.914Z,44.85
2019-04-01T23:40:06.264Z,45.01
2019-04-01T23:42:38.139Z,44.92
2019-04-01T23:45:08.950Z,44.99
2019-04-01T23:47:39.725Z,45.12
2019-04-01T23:50:10.101Z,45.12
2019-04-01T23:52:40.539Z,45.21
2019-04-01T23:55:11.679Z,45.13
2019-04-01T23:57:43.128Z,45.35
